sensor_id;sensor_type;location;lat;lon;timestamp;temperature;humidity
43089;DHT22;28709;52.030;5.652;2023-03-21T00:00:36;9.60;99.90
43089;DHT22;28709;52.030;5.652;2023-03-21T00:03:02;9.60;99.90
43089;DHT22;28709;52.030;5.652;2023-03-21T00:05:28;9.60;99.90
43089;DHT22;28709;52.030;5.652;2023-03-21T00:07:53;9.60;99.90
43089;DHT22;28709;52.030;5.652;2023-03-21T00:10:19;9.60;99.90
43089;DHT22;28709;52.030;5.652;2023-03-21T00:12:45;9.50;99.90
43089;DHT22;28709;52.030;5.652;2023-03-21T00:15:15;9.60;99.90
43089;DHT22;28709;52.030;5.652;2023-03-21T00:17:43;9.60;99.90
43089;DHT22;28709;52.030;5.652;2023-03-21T00:20:09;9.50;99.90
43089;DHT22;28709;52.030;5.652;2023-03-21T00:22:40;9.50;99.90
43089;DHT22;28709;52.030;5.652;2023-03-21T00:25:07;9.50;99.90
43089;DHT22;28709;52.030;5.652;2023-03-21T00:27:33;9.50;99.90
43089;DHT22;28709;52.030;5.652;2023-03-21T00:29:59;9.50;99.90
43089;DHT22;28709;52.030;5.652;2023-03-21T00:32:25;9.50;99.90
43089;DHT22;28709;52.030;5.652;2023-03-21T00:34:50;9.50;99.90
43089;DHT22;28709;52.030;5.652;2023-03-21T00:37:17;9.50;99.90
43089;DHT22;28709;52.030;5.652;2023-03-21T00:39:44;9.50;99.90
43089;DHT22;28709;52.030;5.652;2023-03-21T00:42:14;9.50;99.90
43089;DHT22;28709;52.030;5.652;2023-03-21T00:44:40;9.50;99.90
43089;DHT22;28709;52.030;5.652;2023-03-21T00:47:06;9.50;99.90
43089;DHT22;28709;52.030;5.652;2023-03-21T00:49:32;9.50;99.90
43089;DHT22;28709;52.030;5.652;2023-03-21T00:52:04;9.50;99.90
43089;DHT22;28709;52.030;5.652;2023-03-21T00:54:32;9.50;99.90
43089;DHT22;28709;52.030;5.652;2023-03-21T00:56:57;9.50;99.90
43089;DHT22;28709;52.030;5.652;2023-03-21T00:59:23;9.50;99.90
43089;DHT22;28709;52.030;5.652;2023-03-21T01:01:49;9.50;99.90
43089;DHT22;28709;52.030;5.652;2023-03-21T01:04:18;9.40;99.90
43089;DHT22;28709;52.030;5.652;2023-03-21T01:06:46;9.40;99.90
43089;DHT22;28709;52.030;5.652;2023-03-21T01:09:14;9.50;99.90
43089;DHT22;28709;52.030;5.652;2023-03-21T01:11:41;9.50;99.90
43089;DHT22;28709;52.030;5.652;2023-03-21T01:14:07;9.40;99.90
43089;DHT22;28709;52.030;5.652;2023-03-21T01:16:33;9.40;99.90
43089;DHT22;28709;52.030;5.652;2023-03-21T01:18:59;9.40;99.90
43089;DHT22;28709;52.030;5.652;2023-03-21T01:21:25;9.40;99.90
43089;DHT22;28709;52.030;5.652;2023-03-21T01:23:51;9.40;99.90
43089;DHT22;28709;52.030;5.652;2023-03-21T01:26:16;9.40;99.90
43089;DHT22;28709;52.030;5.652;2023-03-21T01:28:42;9.40;99.90
43089;DHT22;28709;52.030;5.652;2023-03-21T01:31:13;9.40;99.90
43089;DHT22;28709;52.030;5.652;2023-03-21T01:33:39;9.30;99.90
43089;DHT22;28709;52.030;5.652;2023-03-21T01:36:06;9.30;99.90
43089;DHT22;28709;52.030;5.652;2023-03-21T01:38:31;9.40;99.90
43089;DHT22;28709;52.030;5.652;2023-03-21T01:40:59;9.40;99.90
43089;DHT22;28709;52.030;5.652;2023-03-21T01:43:33;9.40;99.90
43089;DHT22;28709;52.030;5.652;2023-03-21T01:48:54;9.40;99.90
43089;DHT22;28709;52.030;5.652;2023-03-21T01:51:21;9.40;99.90
43089;DHT22;28709;52.030;5.652;2023-03-21T01:53:47;9.40;99.90
43089;DHT22;28709;52.030;5.652;2023-03-21T01:56:19;9.40;99.90
43089;DHT22;28709;52.030;5.652;2023-03-21T01:58:48;9.40;99.90
43089;DHT22;28709;52.030;5.652;2023-03-21T02:01:14;9.40;99.90
43089;DHT22;28709;52.030;5.652;2023-03-21T02:03:43;9.40;99.90
43089;DHT22;28709;52.030;5.652;2023-03-21T02:08:56;9.40;99.90
43089;DHT22;28709;52.030;5.652;2023-03-21T02:11:23;9.40;99.90
43089;DHT22;28709;52.030;5.652;2023-03-21T02:13:48;9.40;99.90
43089;DHT22;28709;52.030;5.652;2023-03-21T02:19:37;9.40;99.90
43089;DHT22;28709;52.030;5.652;2023-03-21T02:24:47;9.30;99.90
43089;DHT22;28709;52.030;5.652;2023-03-21T02:27:21;9.30;99.90
43089;DHT22;28709;52.030;5.652;2023-03-21T02:37:47;9.30;99.90
43089;DHT22;28709;52.030;5.652;2023-03-21T02:40:49;9.30;99.90
43089;DHT22;28709;52.030;5.652;2023-03-21T02:43:34;9.30;99.90
43089;DHT22;28709;52.030;5.652;2023-03-21T02:46:14;9.30;99.90
43089;DHT22;28709;52.030;5.652;2023-03-21T02:51:31;9.40;99.90
43089;DHT22;28709;52.030;5.652;2023-03-21T02:54:04;9.40;99.90
43089;DHT22;28709;52.030;5.652;2023-03-21T02:56:32;9.40;99.90
43089;DHT22;28709;52.030;5.652;2023-03-21T02:58:59;9.40;99.90
43089;DHT22;28709;52.030;5.652;2023-03-21T03:01:25;9.40;99.90
43089;DHT22;28709;52.030;5.652;2023-03-21T03:03:51;9.40;99.90
43089;DHT22;28709;52.030;5.652;2023-03-21T03:06:21;9.40;99.90
43089;DHT22;28709;52.030;5.652;2023-03-21T03:18:58;9.40;99.90
43089;DHT22;28709;52.030;5.652;2023-03-21T03:21:40;9.40;99.90
43089;DHT22;28709;52.030;5.652;2023-03-21T03:24:25;9.40;99.90
43089;DHT22;28709;52.030;5.652;2023-03-21T03:26:56;9.40;99.90
43089;DHT22;28709;52.030;5.652;2023-03-21T03:29:25;9.40;99.90
43089;DHT22;28709;52.030;5.652;2023-03-21T03:34:44;9.40;99.90
43089;DHT22;28709;52.030;5.652;2023-03-21T03:37:18;9.30;99.90
43089;DHT22;28709;52.030;5.652;2023-03-21T03:39:49;9.30;99.90
43089;DHT22;28709;52.030;5.652;2023-03-21T03:42:35;9.30;99.90
43089;DHT22;28709;52.030;5.652;2023-03-21T03:45:04;9.30;99.90
43089;DHT22;28709;52.030;5.652;2023-03-21T03:47:36;9.30;99.90
43089;DHT22;28709;52.030;5.652;2023-03-21T03:50:27;9.30;99.90
43089;DHT22;28709;52.030;5.652;2023-03-21T03:53:01;9.20;99.90
43089;DHT22;28709;52.030;5.652;2023-03-21T03:55:29;9.20;99.90
43089;DHT22;28709;52.030;5.652;2023-03-21T03:58:00;9.20;99.90
43089;DHT22;28709;52.030;5.652;2023-03-21T04:00:26;9.20;99.90
43089;DHT22;28709;52.030;5.652;2023-03-21T04:02:52;9.20;99.90
43089;DHT22;28709;52.030;5.652;2023-03-21T04:05:18;9.20;99.90
43089;DHT22;28709;52.030;5.652;2023-03-21T04:07:46;9.20;99.90
43089;DHT22;28709;52.030;5.652;2023-03-21T04:10:16;9.20;99.90
43089;DHT22;28709;52.030;5.652;2023-03-21T04:12:41;9.10;99.90
43089;DHT22;28709;52.030;5.652;2023-03-21T04:15:08;9.20;99.90
43089;DHT22;28709;52.030;5.652;2023-03-21T04:17:33;9.10;99.90
43089;DHT22;28709;52.030;5.652;2023-03-21T04:19:59;9.20;99.90
43089;DHT22;28709;52.030;5.652;2023-03-21T04:22:25;9.20;99.90
43089;DHT22;28709;52.030;5.652;2023-03-21T04:24:51;9.20;99.90
43089;DHT22;28709;52.030;5.652;2023-03-21T04:27:17;9.20;99.90
43089;DHT22;28709;52.030;5.652;2023-03-21T04:29:43;9.20;99.90
43089;DHT22;28709;52.030;5.652;2023-03-21T04:32:09;9.10;99.90
43089;DHT22;28709;52.030;5.652;2023-03-21T04:34:41;9.20;99.90
43089;DHT22;28709;52.030;5.652;2023-03-21T04:37:08;9.10;99.90
43089;DHT22;28709;52.030;5.652;2023-03-21T04:39:36;9.10;99.90
43089;DHT22;28709;52.030;5.652;2023-03-21T04:42:03;9.10;99.90
43089;DHT22;28709;52.030;5.652;2023-03-21T04:44:29;9.10;99.90
43089;DHT22;28709;52.030;5.652;2023-03-21T04:46:55;9.10;99.90
43089;DHT22;28709;52.030;5.652;2023-03-21T04:49:20;9.10;99.90
43089;DHT22;28709;52.030;5.652;2023-03-21T04:51:46;9.10;99.90
43089;DHT22;28709;52.030;5.652;2023-03-21T04:54:12;9.10;99.90
43089;DHT22;28709;52.030;5.652;2023-03-21T04:56:38;9.10;99.90
43089;DHT22;28709;52.030;5.652;2023-03-21T04:59:22;9.10;99.90
43089;DHT22;28709;52.030;5.652;2023-03-21T05:01:47;9.10;99.90
43089;DHT22;28709;52.030;5.652;2023-03-21T05:04:14;9.10;99.90
43089;DHT22;28709;52.030;5.652;2023-03-21T05:06:40;9.10;99.90
43089;DHT22;28709;52.030;5.652;2023-03-21T05:09:10;9.10;99.90
43089;DHT22;28709;52.030;5.652;2023-03-21T05:11:37;9.10;99.90
43089;DHT22;28709;52.030;5.652;2023-03-21T05:14:04;9.10;99.90
43089;DHT22;28709;52.030;5.652;2023-03-21T05:16:30;9.10;99.90
43089;DHT22;28709;52.030;5.652;2023-03-21T05:18:59;9.10;99.90
43089;DHT22;28709;52.030;5.652;2023-03-21T05:21:29;9.10;99.90
43089;DHT22;28709;52.030;5.652;2023-03-21T05:23:58;9.10;99.90
43089;DHT22;28709;52.030;5.652;2023-03-21T05:26:28;9.10;99.90
43089;DHT22;28709;52.030;5.652;2023-03-21T05:28:54;9.10;99.90
43089;DHT22;28709;52.030;5.652;2023-03-21T05:31:20;9.10;99.90
43089;DHT22;28709;52.030;5.652;2023-03-21T05:33:47;9.10;99.90
43089;DHT22;28709;52.030;5.652;2023-03-21T05:36:13;9.10;99.90
43089;DHT22;28709;52.030;5.652;2023-03-21T05:38:39;9.10;99.90
43089;DHT22;28709;52.030;5.652;2023-03-21T05:41:14;9.20;99.90
43089;DHT22;28709;52.030;5.652;2023-03-21T05:43:40;9.20;99.90
43089;DHT22;28709;52.030;5.652;2023-03-21T05:46:06;9.20;99.90
43089;DHT22;28709;52.030;5.652;2023-03-21T05:48:32;9.20;99.90
43089;DHT22;28709;52.030;5.652;2023-03-21T05:50:59;9.20;99.90
43089;DHT22;28709;52.030;5.652;2023-03-21T05:53:25;9.20;99.90
43089;DHT22;28709;52.030;5.652;2023-03-21T05:55:51;9.20;99.90
43089;DHT22;28709;52.030;5.652;2023-03-21T05:58:17;9.20;99.90
43089;DHT22;28709;52.030;5.652;2023-03-21T06:00:42;9.20;99.90
43089;DHT22;28709;52.030;5.652;2023-03-21T06:03:08;9.30;99.90
43089;DHT22;28709;52.030;5.652;2023-03-21T06:05:33;9.30;99.90
43089;DHT22;28709;52.030;5.652;2023-03-21T06:07:59;9.30;99.90
43089;DHT22;28709;52.030;5.652;2023-03-21T06:10:25;9.30;99.90
43089;DHT22;28709;52.030;5.652;2023-03-21T06:12:51;9.30;99.90
43089;DHT22;28709;52.030;5.652;2023-03-21T06:15:16;9.30;99.90
43089;DHT22;28709;52.030;5.652;2023-03-21T06:17:42;9.30;99.90
43089;DHT22;28709;52.030;5.652;2023-03-21T06:20:09;9.30;99.90
43089;DHT22;28709;52.030;5.652;2023-03-21T06:22:35;9.30;99.90
43089;DHT22;28709;52.030;5.652;2023-03-21T06:25:01;9.30;99.90
43089;DHT22;28709;52.030;5.652;2023-03-21T06:27:27;9.30;99.90
43089;DHT22;28709;52.030;5.652;2023-03-21T06:29:52;9.30;99.90
43089;DHT22;28709;52.030;5.652;2023-03-21T06:32:18;9.40;99.90
43089;DHT22;28709;52.030;5.652;2023-03-21T06:34:44;9.40;99.90
43089;DHT22;28709;52.030;5.652;2023-03-21T06:37:10;9.40;99.90
43089;DHT22;28709;52.030;5.652;2023-03-21T06:39:35;9.40;99.90
43089;DHT22;28709;52.030;5.652;2023-03-21T06:42:01;9.40;99.90
43089;DHT22;28709;52.030;5.652;2023-03-21T06:44:27;9.40;99.90
43089;DHT22;28709;52.030;5.652;2023-03-21T06:46:53;9.40;99.90
43089;DHT22;28709;52.030;5.652;2023-03-21T06:49:19;9.40;99.90
43089;DHT22;28709;52.030;5.652;2023-03-21T06:51:45;9.40;99.90
43089;DHT22;28709;52.030;5.652;2023-03-21T06:54:11;9.50;99.90
43089;DHT22;28709;52.030;5.652;2023-03-21T06:56:39;9.40;99.90
43089;DHT22;28709;52.030;5.652;2023-03-21T06:59:05;9.50;99.90
43089;DHT22;28709;52.030;5.652;2023-03-21T07:01:31;9.50;99.90
43089;DHT22;28709;52.030;5.652;2023-03-21T07:03:56;9.50;99.90
43089;DHT22;28709;52.030;5.652;2023-03-21T07:06:24;9.60;99.90
43089;DHT22;28709;52.030;5.652;2023-03-21T07:08:53;9.60;99.90
43089;DHT22;28709;52.030;5.652;2023-03-21T07:11:20;9.60;99.90
43089;DHT22;28709;52.030;5.652;2023-03-21T07:13:46;9.60;99.90
43089;DHT22;28709;52.030;5.652;2023-03-21T07:16:14;9.60;99.90
43089;DHT22;28709;52.030;5.652;2023-03-21T07:18:40;9.60;99.90
43089;DHT22;28709;52.030;5.652;2023-03-21T07:21:05;9.60;99.90
43089;DHT22;28709;52.030;5.652;2023-03-21T07:23:31;9.60;99.90
43089;DHT22;28709;52.030;5.652;2023-03-21T07:25:57;9.60;99.90
43089;DHT22;28709;52.030;5.652;2023-03-21T07:28:23;9.60;99.90
43089;DHT22;28709;52.030;5.652;2023-03-21T07:30:58;9.60;99.90
43089;DHT22;28709;52.030;5.652;2023-03-21T07:33:24;9.60;99.90
43089;DHT22;28709;52.030;5.652;2023-03-21T07:35:50;9.60;99.90
43089;DHT22;28709;52.030;5.652;2023-03-21T07:38:17;9.50;99.90
43089;DHT22;28709;52.030;5.652;2023-03-21T07:40:44;9.60;99.90
43089;DHT22;28709;52.030;5.652;2023-03-21T07:43:10;9.50;99.90
43089;DHT22;28709;52.030;5.652;2023-03-21T07:45:35;9.50;99.90
43089;DHT22;28709;52.030;5.652;2023-03-21T07:48:01;9.50;99.90
43089;DHT22;28709;52.030;5.652;2023-03-21T07:50:27;9.50;99.90
43089;DHT22;28709;52.030;5.652;2023-03-21T07:52:52;9.50;99.90
43089;DHT22;28709;52.030;5.652;2023-03-21T07:55:18;9.50;99.90
43089;DHT22;28709;52.030;5.652;2023-03-21T07:57:44;9.50;99.90
43089;DHT22;28709;52.030;5.652;2023-03-21T08:00:11;9.50;99.90
43089;DHT22;28709;52.030;5.652;2023-03-21T08:02:38;9.60;99.90
43089;DHT22;28709;52.030;5.652;2023-03-21T08:05:04;9.60;99.90
43089;DHT22;28709;52.030;5.652;2023-03-21T08:07:30;9.60;99.90
43089;DHT22;28709;52.030;5.652;2023-03-21T08:09:56;9.60;99.90
43089;DHT22;28709;52.030;5.652;2023-03-21T08:12:22;9.60;99.90
43089;DHT22;28709;52.030;5.652;2023-03-21T08:14:48;9.70;99.90
43089;DHT22;28709;52.030;5.652;2023-03-21T08:17:13;9.70;99.90
43089;DHT22;28709;52.030;5.652;2023-03-21T08:19:39;9.70;99.90
43089;DHT22;28709;52.030;5.652;2023-03-21T08:22:04;9.80;99.90
43089;DHT22;28709;52.030;5.652;2023-03-21T08:24:31;9.80;99.90
43089;DHT22;28709;52.030;5.652;2023-03-21T08:26:59;9.90;99.90
43089;DHT22;28709;52.030;5.652;2023-03-21T08:29:25;9.90;99.90
43089;DHT22;28709;52.030;5.652;2023-03-21T08:31:51;9.90;99.90
43089;DHT22;28709;52.030;5.652;2023-03-21T08:34:17;9.90;99.90
43089;DHT22;28709;52.030;5.652;2023-03-21T08:36:44;9.90;99.90
43089;DHT22;28709;52.030;5.652;2023-03-21T08:39:09;9.90;99.90
43089;DHT22;28709;52.030;5.652;2023-03-21T08:41:36;9.90;99.90
43089;DHT22;28709;52.030;5.652;2023-03-21T08:44:03;9.90;99.90
43089;DHT22;28709;52.030;5.652;2023-03-21T08:46:29;9.90;99.90
43089;DHT22;28709;52.030;5.652;2023-03-21T08:48:55;9.90;99.90
43089;DHT22;28709;52.030;5.652;2023-03-21T08:51:21;9.90;99.90
43089;DHT22;28709;52.030;5.652;2023-03-21T08:53:47;9.90;99.90
43089;DHT22;28709;52.030;5.652;2023-03-21T08:56:16;9.90;99.90
43089;DHT22;28709;52.030;5.652;2023-03-21T08:58:41;9.90;99.90
43089;DHT22;28709;52.030;5.652;2023-03-21T09:01:07;9.90;99.90
43089;DHT22;28709;52.030;5.652;2023-03-21T09:03:36;9.90;99.90
43089;DHT22;28709;52.030;5.652;2023-03-21T09:06:03;10.00;99.90
43089;DHT22;28709;52.030;5.652;2023-03-21T09:08:29;10.10;99.90
43089;DHT22;28709;52.030;5.652;2023-03-21T09:10:55;10.20;99.90
43089;DHT22;28709;52.030;5.652;2023-03-21T09:13:21;10.20;99.90
43089;DHT22;28709;52.030;5.652;2023-03-21T09:15:47;10.30;99.90
43089;DHT22;28709;52.030;5.652;2023-03-21T09:18:14;10.30;99.90
43089;DHT22;28709;52.030;5.652;2023-03-21T09:20:43;10.40;99.90
43089;DHT22;28709;52.030;5.652;2023-03-21T09:23:10;10.40;99.90
43089;DHT22;28709;52.030;5.652;2023-03-21T09:25:37;10.50;99.90
43089;DHT22;28709;52.030;5.652;2023-03-21T09:28:03;10.60;99.90
43089;DHT22;28709;52.030;5.652;2023-03-21T09:30:33;10.60;99.90
43089;DHT22;28709;52.030;5.652;2023-03-21T09:33:00;10.60;99.90
43089;DHT22;28709;52.030;5.652;2023-03-21T09:35:27;10.70;99.90
43089;DHT22;28709;52.030;5.652;2023-03-21T09:37:53;10.70;99.90
43089;DHT22;28709;52.030;5.652;2023-03-21T09:46:00;10.70;99.90
43089;DHT22;28709;52.030;5.652;2023-03-21T09:48:42;10.70;99.90
43089;DHT22;28709;52.030;5.652;2023-03-21T09:51:13;10.80;99.90
43089;DHT22;28709;52.030;5.652;2023-03-21T09:53:41;10.80;99.90
43089;DHT22;28709;52.030;5.652;2023-03-21T09:56:09;10.80;99.90
43089;DHT22;28709;52.030;5.652;2023-03-21T09:58:43;10.80;99.90
43089;DHT22;28709;52.030;5.652;2023-03-21T10:01:17;10.80;99.90
43089;DHT22;28709;52.030;5.652;2023-03-21T10:04:02;10.90;99.90
43089;DHT22;28709;52.030;5.652;2023-03-21T10:06:29;10.90;99.90
43089;DHT22;28709;52.030;5.652;2023-03-21T10:09:02;10.90;99.90
43089;DHT22;28709;52.030;5.652;2023-03-21T10:11:46;10.90;99.90
43089;DHT22;28709;52.030;5.652;2023-03-21T10:14:27;11.00;99.90
43089;DHT22;28709;52.030;5.652;2023-03-21T10:17:01;11.10;99.90
43089;DHT22;28709;52.030;5.652;2023-03-21T10:19:28;11.20;99.90
43089;DHT22;28709;52.030;5.652;2023-03-21T10:21:54;11.20;99.90
43089;DHT22;28709;52.030;5.652;2023-03-21T10:24:25;11.30;99.90
43089;DHT22;28709;52.030;5.652;2023-03-21T10:26:53;11.30;99.90
43089;DHT22;28709;52.030;5.652;2023-03-21T10:29:26;11.40;99.90
43089;DHT22;28709;52.030;5.652;2023-03-21T10:31:53;11.40;99.90
43089;DHT22;28709;52.030;5.652;2023-03-21T10:34:38;11.50;99.90
43089;DHT22;28709;52.030;5.652;2023-03-21T10:37:05;11.50;99.90
43089;DHT22;28709;52.030;5.652;2023-03-21T10:39:44;11.60;99.90
43089;DHT22;28709;52.030;5.652;2023-03-21T10:42:26;11.60;99.90
43089;DHT22;28709;52.030;5.652;2023-03-21T10:44:54;11.70;99.90
43089;DHT22;28709;52.030;5.652;2023-03-21T10:47:26;11.70;99.90
43089;DHT22;28709;52.030;5.652;2023-03-21T10:49:52;11.70;99.90
43089;DHT22;28709;52.030;5.652;2023-03-21T10:52:21;11.80;99.90
43089;DHT22;28709;52.030;5.652;2023-03-21T10:54:48;12.00;99.90
43089;DHT22;28709;52.030;5.652;2023-03-21T10:57:22;12.10;99.90
43089;DHT22;28709;52.030;5.652;2023-03-21T10:59:56;12.20;99.90
43089;DHT22;28709;52.030;5.652;2023-03-21T11:05:03;12.40;99.90
43089;DHT22;28709;52.030;5.652;2023-03-21T11:07:31;12.40;99.90
43089;DHT22;28709;52.030;5.652;2023-03-21T11:09:59;12.40;99.90
43089;DHT22;28709;52.030;5.652;2023-03-21T11:12:35;12.40;99.90
43089;DHT22;28709;52.030;5.652;2023-03-21T11:15:31;12.40;99.90
43089;DHT22;28709;52.030;5.652;2023-03-21T11:17:58;12.30;99.90
43089;DHT22;28709;52.030;5.652;2023-03-21T11:20:25;12.30;99.90
43089;DHT22;28709;52.030;5.652;2023-03-21T11:22:54;12.30;99.90
43089;DHT22;28709;52.030;5.652;2023-03-21T11:25:37;12.20;99.90
43089;DHT22;28709;52.030;5.652;2023-03-21T11:28:06;12.20;99.90
43089;DHT22;28709;52.030;5.652;2023-03-21T11:30:33;12.20;99.90
43089;DHT22;28709;52.030;5.652;2023-03-21T11:33:03;12.40;99.90
43089;DHT22;28709;52.030;5.652;2023-03-21T11:35:37;12.40;99.90
43089;DHT22;28709;52.030;5.652;2023-03-21T11:38:04;12.70;99.90
43089;DHT22;28709;52.030;5.652;2023-03-21T11:40:36;12.90;99.90
43089;DHT22;28709;52.030;5.652;2023-03-21T11:43:25;13.10;99.90
43089;DHT22;28709;52.030;5.652;2023-03-21T11:46:06;13.20;99.90
43089;DHT22;28709;52.030;5.652;2023-03-21T11:48:43;13.20;99.90
43089;DHT22;28709;52.030;5.652;2023-03-21T11:51:25;13.20;99.90
43089;DHT22;28709;52.030;5.652;2023-03-21T11:56:37;13.10;99.90
43089;DHT22;28709;52.030;5.652;2023-03-21T12:05:34;13.10;99.90
43089;DHT22;28709;52.030;5.652;2023-03-21T12:14:19;13.00;99.90
43089;DHT22;28709;52.030;5.652;2023-03-21T12:17:01;13.00;99.90
43089;DHT22;28709;52.030;5.652;2023-03-21T12:25:37;13.00;99.90
43089;DHT22;28709;52.030;5.652;2023-03-21T12:28:15;13.00;99.90
43089;DHT22;28709;52.030;5.652;2023-03-21T12:42:24;13.30;99.90
43089;DHT22;28709;52.030;5.652;2023-03-21T12:44:25;13.30;99.90
43089;DHT22;28709;52.030;5.652;2023-03-21T12:47:03;13.20;99.90
43089;DHT22;28709;52.030;5.652;2023-03-21T12:49:41;13.30;99.90
43089;DHT22;28709;52.030;5.652;2023-03-21T12:52:15;13.50;99.90
43089;DHT22;28709;52.030;5.652;2023-03-21T12:59:43;13.90;99.90
43089;DHT22;28709;52.030;5.652;2023-03-21T13:02:22;14.00;99.90
43089;DHT22;28709;52.030;5.652;2023-03-21T13:07:21;14.30;99.90
43089;DHT22;28709;52.030;5.652;2023-03-21T13:09:47;14.20;99.90
43089;DHT22;28709;52.030;5.652;2023-03-21T13:12:42;14.20;99.90
43089;DHT22;28709;52.030;5.652;2023-03-21T13:17:47;14.20;99.90
43089;DHT22;28709;52.030;5.652;2023-03-21T13:20:27;14.50;99.90
43089;DHT22;28709;52.030;5.652;2023-03-21T13:22:53;14.70;99.90
43089;DHT22;28709;52.030;5.652;2023-03-21T13:25:22;14.70;99.90
43089;DHT22;28709;52.030;5.652;2023-03-21T13:27:53;14.60;99.90
43089;DHT22;28709;52.030;5.652;2023-03-21T13:30:23;14.50;99.90
43089;DHT22;28709;52.030;5.652;2023-03-21T13:35:38;14.60;99.90
43089;DHT22;28709;52.030;5.652;2023-03-21T13:38:23;15.00;99.90
43089;DHT22;28709;52.030;5.652;2023-03-21T13:40:50;15.40;99.90
43089;DHT22;28709;52.030;5.652;2023-03-21T13:46:07;15.50;99.90
43089;DHT22;28709;52.030;5.652;2023-03-21T13:51:09;15.10;99.90
43089;DHT22;28709;52.030;5.652;2023-03-21T13:53:39;15.00;99.90
43089;DHT22;28709;52.030;5.652;2023-03-21T14:04:17;14.60;99.90
43089;DHT22;28709;52.030;5.652;2023-03-21T14:09:18;14.60;99.90
43089;DHT22;28709;52.030;5.652;2023-03-21T14:11:44;14.60;99.90
43089;DHT22;28709;52.030;5.652;2023-03-21T14:14:13;14.70;99.90
43089;DHT22;28709;52.030;5.652;2023-03-21T14:16:40;14.60;99.90
43089;DHT22;28709;52.030;5.652;2023-03-21T14:19:05;14.60;99.90
43089;DHT22;28709;52.030;5.652;2023-03-21T14:21:34;14.60;99.90
43089;DHT22;28709;52.030;5.652;2023-03-21T14:24:10;14.60;99.90
43089;DHT22;28709;52.030;5.652;2023-03-21T14:26:41;14.70;99.90
43089;DHT22;28709;52.030;5.652;2023-03-21T14:29:11;14.60;99.90
43089;DHT22;28709;52.030;5.652;2023-03-21T14:31:40;14.70;99.90
43089;DHT22;28709;52.030;5.652;2023-03-21T14:34:07;14.70;99.90
43089;DHT22;28709;52.030;5.652;2023-03-21T14:36:38;14.70;99.90
43089;DHT22;28709;52.030;5.652;2023-03-21T14:39:26;14.60;99.90
43089;DHT22;28709;52.030;5.652;2023-03-21T14:41:55;14.60;99.90
43089;DHT22;28709;52.030;5.652;2023-03-21T14:47:06;14.60;99.90
43089;DHT22;28709;52.030;5.652;2023-03-21T14:49:35;14.70;99.90
43089;DHT22;28709;52.030;5.652;2023-03-21T14:52:04;14.60;99.90
43089;DHT22;28709;52.030;5.652;2023-03-21T14:54:31;14.50;99.90
43089;DHT22;28709;52.030;5.652;2023-03-21T14:57:00;14.40;99.90
43089;DHT22;28709;52.030;5.652;2023-03-21T14:59:31;14.30;99.90
43089;DHT22;28709;52.030;5.652;2023-03-21T15:01:59;14.40;99.90
43089;DHT22;28709;52.030;5.652;2023-03-21T15:04:27;14.40;99.90
43089;DHT22;28709;52.030;5.652;2023-03-21T15:06:56;14.40;99.90
43089;DHT22;28709;52.030;5.652;2023-03-21T15:09:25;14.40;99.90
43089;DHT22;28709;52.030;5.652;2023-03-21T15:11:53;14.30;99.90
43089;DHT22;28709;52.030;5.652;2023-03-21T15:14:25;14.20;99.90
43089;DHT22;28709;52.030;5.652;2023-03-21T15:16:52;14.10;99.90
43089;DHT22;28709;52.030;5.652;2023-03-21T15:19:23;14.10;99.90
43089;DHT22;28709;52.030;5.652;2023-03-21T15:21:58;14.10;99.90
43089;DHT22;28709;52.030;5.652;2023-03-21T15:24:34;14.10;99.90
43089;DHT22;28709;52.030;5.652;2023-03-21T15:27:05;14.10;99.90
43089;DHT22;28709;52.030;5.652;2023-03-21T15:29:33;14.10;99.90
43089;DHT22;28709;52.030;5.652;2023-03-21T15:32:09;14.10;99.90
43089;DHT22;28709;52.030;5.652;2023-03-21T15:34:36;14.10;99.90
43089;DHT22;28709;52.030;5.652;2023-03-21T15:37:07;14.10;99.90
43089;DHT22;28709;52.030;5.652;2023-03-21T15:39:33;14.10;99.90
43089;DHT22;28709;52.030;5.652;2023-03-21T15:42:18;14.10;99.90
43089;DHT22;28709;52.030;5.652;2023-03-21T15:44:47;14.00;99.90
43089;DHT22;28709;52.030;5.652;2023-03-21T15:47:16;14.00;99.90
43089;DHT22;28709;52.030;5.652;2023-03-21T15:50:07;14.00;99.90
43089;DHT22;28709;52.030;5.652;2023-03-21T15:52:33;14.00;99.90
43089;DHT22;28709;52.030;5.652;2023-03-21T15:55:00;13.90;99.90
43089;DHT22;28709;52.030;5.652;2023-03-21T15:57:31;13.90;99.90
43089;DHT22;28709;52.030;5.652;2023-03-21T16:00:15;13.90;99.90
43089;DHT22;28709;52.030;5.652;2023-03-21T16:02:45;13.90;99.90
43089;DHT22;28709;52.030;5.652;2023-03-21T16:05:27;13.90;99.90
43089;DHT22;28709;52.030;5.652;2023-03-21T16:08:02;13.90;99.90
43089;DHT22;28709;52.030;5.652;2023-03-21T16:10:34;13.90;99.90
43089;DHT22;28709;52.030;5.652;2023-03-21T16:13:03;14.00;99.90
43089;DHT22;28709;52.030;5.652;2023-03-21T16:15:30;14.10;99.90
43089;DHT22;28709;52.030;5.652;2023-03-21T16:17:59;14.00;99.90
43089;DHT22;28709;52.030;5.652;2023-03-21T16:20:28;14.00;99.90
43089;DHT22;28709;52.030;5.652;2023-03-21T16:22:57;14.00;99.90
43089;DHT22;28709;52.030;5.652;2023-03-21T16:25:22;14.00;99.90
43089;DHT22;28709;52.030;5.652;2023-03-21T16:27:48;13.90;99.90
43089;DHT22;28709;52.030;5.652;2023-03-21T16:30:17;13.80;99.90
43089;DHT22;28709;52.030;5.652;2023-03-21T16:32:43;13.80;99.90
43089;DHT22;28709;52.030;5.652;2023-03-21T16:35:09;13.80;99.90
43089;DHT22;28709;52.030;5.652;2023-03-21T16:37:36;13.70;99.90
43089;DHT22;28709;52.030;5.652;2023-03-21T16:40:02;13.70;99.90
43089;DHT22;28709;52.030;5.652;2023-03-21T16:42:30;13.70;99.90
43089;DHT22;28709;52.030;5.652;2023-03-21T16:44:56;13.60;99.90
43089;DHT22;28709;52.030;5.652;2023-03-21T16:47:21;13.40;99.90
43089;DHT22;28709;52.030;5.652;2023-03-21T16:49:48;13.30;99.90
43089;DHT22;28709;52.030;5.652;2023-03-21T16:52:16;13.10;99.90
43089;DHT22;28709;52.030;5.652;2023-03-21T16:54:42;13.00;99.90
43089;DHT22;28709;52.030;5.652;2023-03-21T16:57:25;12.90;99.90
43089;DHT22;28709;52.030;5.652;2023-03-21T16:59:54;12.70;99.90
43089;DHT22;28709;52.030;5.652;2023-03-21T17:02:21;12.60;99.90
43089;DHT22;28709;52.030;5.652;2023-03-21T17:04:47;12.50;99.90
43089;DHT22;28709;52.030;5.652;2023-03-21T17:07:13;12.60;99.90
43089;DHT22;28709;52.030;5.652;2023-03-21T17:09:40;12.50;99.90
43089;DHT22;28709;52.030;5.652;2023-03-21T17:12:14;12.60;99.90
43089;DHT22;28709;52.030;5.652;2023-03-21T17:14:41;12.50;99.90
43089;DHT22;28709;52.030;5.652;2023-03-21T17:17:11;12.40;99.90
43089;DHT22;28709;52.030;5.652;2023-03-21T17:19:37;12.30;99.90
43089;DHT22;28709;52.030;5.652;2023-03-21T17:22:04;12.20;99.90
43089;DHT22;28709;52.030;5.652;2023-03-21T17:24:29;12.20;99.90
43089;DHT22;28709;52.030;5.652;2023-03-21T17:26:55;12.20;99.90
43089;DHT22;28709;52.030;5.652;2023-03-21T17:29:21;12.20;99.90
43089;DHT22;28709;52.030;5.652;2023-03-21T17:31:47;12.20;99.90
43089;DHT22;28709;52.030;5.652;2023-03-21T17:34:15;12.20;99.90
43089;DHT22;28709;52.030;5.652;2023-03-21T17:36:43;12.20;99.90
43089;DHT22;28709;52.030;5.652;2023-03-21T17:39:15;12.30;99.90